DEMMH EDLW-EDLW

Flight info

Callsign DEMMH
Flight time 0h 5m
Altitude
Route DTC
Aircraft DA40

Departure

Time 2026-04-30 20:32
Airport Dortmund Airport (EDLW)

Arrival

Time 2026-04-30 20:37
Airport Dortmund Airport (EDLW)
Time Latitude Longitude Altitude Speed Heading
2026-04-30 20:11 51.51197 7.60399 458 ft 0 kts 195°
2026-04-30 20:15 51.51211 7.60403 455 ft 5 kts 186°
2026-04-30 20:15 51.51234 7.60403 451 ft 10 kts 174°
2026-04-30 20:15 51.51197 7.60399 449 ft 8 kts 196°
2026-04-30 20:16 0.00000 0.00000 1056 ft 0 kts 355°
2026-04-30 20:16 51.51197 7.60399 458 ft 0 kts 196°
2026-04-30 20:22 51.51196 7.60357 456 ft 9 kts 273°
2026-04-30 20:22 51.51159 7.60226 456 ft 14 kts 238°
2026-04-30 20:22 51.51204 7.60190 448 ft 17 kts 55°
2026-04-30 20:23 51.51276 7.60386 441 ft 21 kts 60°
2026-04-30 20:23 51.51343 7.60579 438 ft 19 kts 63°
2026-04-30 20:23 51.51403 7.60751 434 ft 18 kts 64°
2026-04-30 20:23 51.51471 7.60941 430 ft 20 kts 57°
2026-04-30 20:24 51.51553 7.61055 426 ft 11 kts 349°
2026-04-30 20:24 51.51580 7.61040 421 ft 1 kts 331°
2026-04-30 20:24 51.51577 7.60991 423 ft 7 kts 258°
2026-04-30 20:24 51.51564 7.60918 419 ft 8 kts 250°
2026-04-30 20:25 51.51556 7.60624 415 ft 15 kts 331°
2026-04-30 20:25 51.51619 7.60634 416 ft 7 kts 52°
2026-04-30 20:26 51.51874 7.61337 417 ft 63 kts 57°
2026-04-30 20:26 51.52345 7.62575 574 ft 66 kts 57°
2026-04-30 20:26 51.52765 7.62936 604 ft 81 kts 358°
2026-04-30 20:27 51.52923 7.61322 657 ft 96 kts 238°
2026-04-30 20:27 51.52293 7.59403 691 ft 99 kts 238°
2026-04-30 20:28 51.51367 7.58362 814 ft 79 kts 148°
2026-04-30 20:28 51.51290 7.59620 580 ft 67 kts 65°
2026-04-30 20:29 51.51717 7.60889 421 ft 61 kts 65°
2026-04-30 20:30 51.52405 7.62462 539 ft 65 kts 47°
2026-04-30 20:30 51.52989 7.60824 696 ft 93 kts 250°
2026-04-30 20:31 51.52270 7.57863 801 ft 100 kts 249°
2026-04-30 20:32 51.51465 7.54875 1059 ft 96 kts 234°
2026-04-30 20:32 51.50755 7.53079 1220 ft 96 kts 232°
2026-04-30 20:33 51.50369 7.52179 1238 ft 100 kts 230°
2026-04-30 20:33 51.49538 7.50472 1373 ft 95 kts 219°
2026-04-30 20:33 51.49015 7.49891 1435 ft 89 kts 189°
2026-04-30 20:34 51.48005 7.50426 1603 ft 76 kts 140°
2026-04-30 20:34 51.48101 7.51480 1889 ft 80 kts 49°
2026-04-30 20:35 51.48561 7.51969 1926 ft 75 kts 58°
2026-04-30 20:35 51.48905 7.52577 1954 ft 78 kts 67°
2026-04-30 20:35 51.49597 7.54066 1744 ft 99 kts 78°
2026-04-30 20:36 51.49861 7.55172 1388 ft 115 kts 76°
2026-04-30 20:36 51.50157 7.56447 1072 ft 126 kts 69°
2026-04-30 20:36 51.50993 7.58854 727 ft 111 kts 64°
2026-04-30 20:37 51.51319 7.59736 602 ft 73 kts 64°
2026-04-30 20:37 51.51556 7.60407 453 ft 68 kts 65°
2026-04-30 20:37 51.51754 7.60997 416 ft 49 kts 63°
2026-04-30 20:37 51.51967 7.61576 433 ft 66 kts 63°
2026-04-30 20:38 51.52141 7.62002 489 ft 71 kts 58°
2026-04-30 20:38 51.52585 7.62330 576 ft 83 kts 350°
2026-04-30 20:38 51.52886 7.61562 631 ft 91 kts 265°
2026-04-30 20:39 51.52547 7.59514 673 ft 98 kts 250°
2026-04-30 20:39 51.52228 7.58613 649 ft 90 kts 193°
2026-04-30 20:39 51.51765 7.59104 577 ft 89 kts 123°
2026-04-30 20:40 51.51647 7.60619 464 ft 69 kts 68°
2026-04-30 20:40 51.51879 7.61276 462 ft 67 kts 64°
2026-04-30 20:40 51.52135 7.61887 475 ft 66 kts 56°
2026-04-30 20:41 51.52774 7.62962 488 ft 65 kts 46°
2026-04-30 20:41 51.53240 7.63079 458 ft 76 kts 349°
2026-04-30 20:41 51.53544 7.62467 465 ft 77 kts 264°
2026-04-30 20:41 51.53349 7.61702 448 ft 76 kts 235°
2026-04-30 20:42 51.53168 7.60904 475 ft 74 kts 265°
2026-04-30 20:42 51.53325 7.60149 486 ft 72 kts 320°
2026-04-30 20:42 51.54227 7.60005 665 ft 66 kts 36°
2026-04-30 20:43 51.54563 7.60474 772 ft 61 kts 68°
2026-04-30 20:43 51.54397 7.60964 831 ft 65 kts 168°
2026-04-30 20:43 51.53948 7.60539 787 ft 85 kts 230°
2026-04-30 20:44 51.53484 7.58745 880 ft 77 kts 246°
2026-04-30 20:44 51.53229 7.57894 805 ft 90 kts 237°
2026-04-30 20:44 51.52703 7.56104 769 ft 91 kts 244°
2026-04-30 20:45 51.52051 7.54617 901 ft 74 kts 167°
2026-04-30 20:45 51.51557 7.54881 941 ft 76 kts 150°
2026-04-30 20:45 51.51143 7.55406 927 ft 78 kts 128°
2026-04-30 20:46 51.50984 7.58047 758 ft 88 kts 76°
2026-04-30 20:46 51.51150 7.58913 597 ft 71 kts 77°
2026-04-30 20:47 51.51493 7.60199 469 ft 66 kts 68°
2026-04-30 20:47 51.51720 7.60878 422 ft 66 kts 65°
2026-04-30 20:48 51.52007 7.61715 409 ft 36 kts 61°
2026-04-30 20:48 51.52099 7.61982 408 ft 21 kts 59°
2026-04-30 20:48 51.52178 7.62214 405 ft 20 kts 63°
2026-04-30 20:48 51.52154 7.62338 405 ft 10 kts 143°
2026-04-30 20:49 51.52097 7.62392 405 ft 7 kts 153°
2026-04-30 20:49 51.52088 7.62399 404 ft 0 kts 152°
2026-04-30 20:50 51.52001 7.62244 407 ft 25 kts 240°
2026-04-30 20:50 51.51880 7.61899 411 ft 42 kts 240°
2026-04-30 20:50 51.51740 7.61500 418 ft 39 kts 239°
2026-04-30 20:50 51.51625 7.61168 424 ft 29 kts 240°
2026-04-30 20:51 51.51509 7.61029 429 ft 16 kts 220°
2026-04-30 20:51 51.51257 7.60337 439 ft 39 kts 240°
2026-04-30 20:51 51.51154 7.60176 455 ft 9 kts 107°